sensor_id;sensor_type;location;lat;lon;timestamp;P1;durP1;ratioP1;P2;durP2;ratioP2
47161;SDS011;32921;53.256;8.198;2024-02-26T00:01:36;556.13;;;518.58;;
47161;SDS011;32921;53.256;8.198;2024-02-26T00:04:01;568.28;;;529.90;;
47161;SDS011;32921;53.256;8.198;2024-02-26T00:06:28;557.83;;;520.17;;
47161;SDS011;32921;53.256;8.198;2024-02-26T00:08:54;536.22;;;500.55;;
47161;SDS011;32921;53.256;8.198;2024-02-26T00:11:20;540.13;;;504.40;;
47161;SDS011;32921;53.256;8.198;2024-02-26T00:13:45;543.90;;;507.55;;
47161;SDS011;32921;53.256;8.198;2024-02-26T00:16:11;548.63;;;512.42;;
47161;SDS011;32921;53.256;8.198;2024-02-26T00:18:37;557.42;;;520.70;;
47161;SDS011;32921;53.256;8.198;2024-02-26T00:21:02;537.85;;;502.77;;
47161;SDS011;32921;53.256;8.198;2024-02-26T00:23:28;543.63;;;507.92;;
47161;SDS011;32921;53.256;8.198;2024-02-26T00:25:54;531.13;;;496.58;;
47161;SDS011;32921;53.256;8.198;2024-02-26T00:28:20;540.42;;;504.83;;
47161;SDS011;32921;53.256;8.198;2024-02-26T00:30:46;514.13;;;480.50;;
47161;SDS011;32921;53.256;8.198;2024-02-26T00:33:12;562.15;;;524.90;;
47161;SDS011;32921;53.256;8.198;2024-02-26T00:35:39;542.65;;;507.13;;
47161;SDS011;32921;53.256;8.198;2024-02-26T00:38:04;539.20;;;503.35;;
47161;SDS011;32921;53.256;8.198;2024-02-26T00:40:31;500.88;;;467.75;;
47161;SDS011;32921;53.256;8.198;2024-02-26T00:42:56;513.92;;;479.48;;
47161;SDS011;32921;53.256;8.198;2024-02-26T00:45:22;509.42;;;475.92;;
47161;SDS011;32921;53.256;8.198;2024-02-26T00:47:47;562.72;;;524.33;;
47161;SDS011;32921;53.256;8.198;2024-02-26T00:50:14;554.70;;;517.22;;
47161;SDS011;32921;53.256;8.198;2024-02-26T00:52:40;494.17;;;460.98;;
47161;SDS011;32921;53.256;8.198;2024-02-26T00:55:06;485.10;;;452.25;;
47161;SDS011;32921;53.256;8.198;2024-02-26T00:57:32;460.77;;;430.15;;
47161;SDS011;32921;53.256;8.198;2024-02-26T00:59:58;487.73;;;454.67;;
47161;SDS011;32921;53.256;8.198;2024-02-26T01:02:24;459.63;;;429.15;;
47161;SDS011;32921;53.256;8.198;2024-02-26T01:04:49;480.15;;;448.15;;
47161;SDS011;32921;53.256;8.198;2024-02-26T01:07:15;430.10;;;401.02;;
47161;SDS011;32921;53.256;8.198;2024-02-26T01:09:41;413.75;;;386.13;;
47161;SDS011;32921;53.256;8.198;2024-02-26T01:12:07;382.58;;;357.20;;
47161;SDS011;32921;53.256;8.198;2024-02-26T01:14:33;416.48;;;388.92;;
47161;SDS011;32921;53.256;8.198;2024-02-26T01:16:59;393.60;;;367.45;;
47161;SDS011;32921;53.256;8.198;2024-02-26T01:19:25;311.60;;;292.20;;
47161;SDS011;32921;53.256;8.198;2024-02-26T01:21:50;340.45;;;318.58;;
47161;SDS011;32921;53.256;8.198;2024-02-26T01:24:16;348.92;;;325.98;;
47161;SDS011;32921;53.256;8.198;2024-02-26T01:26:42;319.48;;;298.77;;
47161;SDS011;32921;53.256;8.198;2024-02-26T01:29:08;314.73;;;294.67;;
47161;SDS011;32921;53.256;8.198;2024-02-26T01:31:33;305.73;;;286.30;;
47161;SDS011;32921;53.256;8.198;2024-02-26T01:33:59;293.95;;;275.50;;
47161;SDS011;32921;53.256;8.198;2024-02-26T01:36:25;261.90;;;246.05;;
47161;SDS011;32921;53.256;8.198;2024-02-26T01:38:51;258.55;;;242.95;;
47161;SDS011;32921;53.256;8.198;2024-02-26T01:41:16;299.63;;;281.13;;
47161;SDS011;32921;53.256;8.198;2024-02-26T01:43:42;237.35;;;222.82;;
47161;SDS011;32921;53.256;8.198;2024-02-26T01:46:11;240.70;;;226.02;;
47161;SDS011;32921;53.256;8.198;2024-02-26T01:48:42;225.10;;;211.65;;
47161;SDS011;32921;53.256;8.198;2024-02-26T01:51:09;272.65;;;255.30;;
47161;SDS011;32921;53.256;8.198;2024-02-26T01:53:37;262.60;;;246.45;;
47161;SDS011;32921;53.256;8.198;2024-02-26T01:56:03;236.80;;;222.52;;
47161;SDS011;32921;53.256;8.198;2024-02-26T01:58:29;236.57;;;222.32;;
47161;SDS011;32921;53.256;8.198;2024-02-26T02:00:56;222.93;;;209.63;;
47161;SDS011;32921;53.256;8.198;2024-02-26T02:03:22;220.07;;;206.88;;
47161;SDS011;32921;53.256;8.198;2024-02-26T02:05:48;215.32;;;202.23;;
47161;SDS011;32921;53.256;8.198;2024-02-26T02:08:14;229.98;;;215.93;;
47161;SDS011;32921;53.256;8.198;2024-02-26T02:10:40;227.52;;;213.93;;
47161;SDS011;32921;53.256;8.198;2024-02-26T02:13:07;225.05;;;211.68;;
47161;SDS011;32921;53.256;8.198;2024-02-26T02:15:32;205.80;;;193.57;;
47161;SDS011;32921;53.256;8.198;2024-02-26T02:17:58;211.02;;;198.27;;
47161;SDS011;32921;53.256;8.198;2024-02-26T02:20:33;232.13;;;218.38;;
47161;SDS011;32921;53.256;8.198;2024-02-26T02:22:59;221.20;;;208.07;;
47161;SDS011;32921;53.256;8.198;2024-02-26T02:25:25;205.52;;;193.45;;
47161;SDS011;32921;53.256;8.198;2024-02-26T02:27:51;229.75;;;215.82;;
47161;SDS011;32921;53.256;8.198;2024-02-26T02:30:19;233.82;;;219.70;;
47161;SDS011;32921;53.256;8.198;2024-02-26T02:32:46;264.27;;;248.52;;
47161;SDS011;32921;53.256;8.198;2024-02-26T02:35:12;239.65;;;225.63;;
47161;SDS011;32921;53.256;8.198;2024-02-26T02:37:38;243.48;;;229.00;;
47161;SDS011;32921;53.256;8.198;2024-02-26T02:40:03;266.65;;;250.45;;
47161;SDS011;32921;53.256;8.198;2024-02-26T02:42:30;273.65;;;257.05;;
47161;SDS011;32921;53.256;8.198;2024-02-26T02:44:56;279.98;;;263.10;;
47161;SDS011;32921;53.256;8.198;2024-02-26T02:47:21;252.65;;;237.43;;
47161;SDS011;32921;53.256;8.198;2024-02-26T02:49:47;256.73;;;240.98;;
47161;SDS011;32921;53.256;8.198;2024-02-26T02:52:13;260.80;;;244.55;;
47161;SDS011;32921;53.256;8.198;2024-02-26T02:54:38;242.10;;;227.43;;
47161;SDS011;32921;53.256;8.198;2024-02-26T02:57:06;228.90;;;214.80;;
47161;SDS011;32921;53.256;8.198;2024-02-26T02:59:33;246.18;;;231.10;;
47161;SDS011;32921;53.256;8.198;2024-02-26T03:01:58;243.52;;;228.32;;
47161;SDS011;32921;53.256;8.198;2024-02-26T03:04:24;208.23;;;195.60;;
47161;SDS011;32921;53.256;8.198;2024-02-26T03:06:49;228.52;;;214.15;;
47161;SDS011;32921;53.256;8.198;2024-02-26T03:09:15;228.77;;;213.27;;
47161;SDS011;32921;53.256;8.198;2024-02-26T03:11:41;221.30;;;207.55;;
47161;SDS011;32921;53.256;8.198;2024-02-26T03:14:06;224.68;;;210.85;;
47161;SDS011;32921;53.256;8.198;2024-02-26T03:16:32;215.40;;;202.27;;
47161;SDS011;32921;53.256;8.198;2024-02-26T03:18:58;247.80;;;232.73;;
47161;SDS011;32921;53.256;8.198;2024-02-26T03:21:25;258.00;;;241.50;;
47161;SDS011;32921;53.256;8.198;2024-02-26T03:23:50;226.07;;;212.40;;
47161;SDS011;32921;53.256;8.198;2024-02-26T03:26:16;238.43;;;223.50;;
47161;SDS011;32921;53.256;8.198;2024-02-26T03:28:42;219.82;;;206.73;;
47161;SDS011;32921;53.256;8.198;2024-02-26T03:31:07;238.13;;;223.85;;
47161;SDS011;32921;53.256;8.198;2024-02-26T03:33:33;238.32;;;223.65;;
47161;SDS011;32921;53.256;8.198;2024-02-26T03:35:59;234.32;;;220.23;;
47161;SDS011;32921;53.256;8.198;2024-02-26T03:38:25;261.25;;;245.07;;
47161;SDS011;32921;53.256;8.198;2024-02-26T03:40:51;265.63;;;247.23;;
47161;SDS011;32921;53.256;8.198;2024-02-26T03:43:16;283.73;;;265.80;;
47161;SDS011;32921;53.256;8.198;2024-02-26T03:45:42;297.10;;;277.95;;
47161;SDS011;32921;53.256;8.198;2024-02-26T03:48:08;250.77;;;235.55;;
47161;SDS011;32921;53.256;8.198;2024-02-26T03:50:33;264.40;;;246.88;;
47161;SDS011;32921;53.256;8.198;2024-02-26T03:52:59;273.95;;;256.63;;
47161;SDS011;32921;53.256;8.198;2024-02-26T03:55:25;269.98;;;253.52;;
47161;SDS011;32921;53.256;8.198;2024-02-26T03:57:51;278.35;;;261.50;;
47161;SDS011;32921;53.256;8.198;2024-02-26T04:00:17;260.00;;;244.35;;
47161;SDS011;32921;53.256;8.198;2024-02-26T04:02:43;264.50;;;248.38;;
47161;SDS011;32921;53.256;8.198;2024-02-26T04:05:09;275.98;;;258.98;;
47161;SDS011;32921;53.256;8.198;2024-02-26T04:07:35;277.08;;;260.13;;
47161;SDS011;32921;53.256;8.198;2024-02-26T04:10:01;291.92;;;273.33;;
47161;SDS011;32921;53.256;8.198;2024-02-26T04:12:29;268.42;;;252.32;;
47161;SDS011;32921;53.256;8.198;2024-02-26T04:14:55;303.48;;;284.38;;
47161;SDS011;32921;53.256;8.198;2024-02-26T04:17:21;267.60;;;251.75;;
47161;SDS011;32921;53.256;8.198;2024-02-26T04:19:47;295.50;;;277.05;;
47161;SDS011;32921;53.256;8.198;2024-02-26T04:22:12;308.02;;;289.02;;
47161;SDS011;32921;53.256;8.198;2024-02-26T04:24:38;308.70;;;289.02;;
47161;SDS011;32921;53.256;8.198;2024-02-26T04:27:04;309.33;;;290.20;;
47161;SDS011;32921;53.256;8.198;2024-02-26T04:29:29;318.85;;;298.40;;
47161;SDS011;32921;53.256;8.198;2024-02-26T04:31:55;310.92;;;291.17;;
47161;SDS011;32921;53.256;8.198;2024-02-26T04:34:20;322.02;;;302.30;;
47161;SDS011;32921;53.256;8.198;2024-02-26T04:36:46;319.75;;;299.77;;
47161;SDS011;32921;53.256;8.198;2024-02-26T04:39:13;329.33;;;308.50;;
47161;SDS011;32921;53.256;8.198;2024-02-26T04:41:38;338.75;;;317.02;;
47161;SDS011;32921;53.256;8.198;2024-02-26T04:44:04;360.45;;;337.13;;
47161;SDS011;32921;53.256;8.198;2024-02-26T04:46:30;341.17;;;319.15;;
47161;SDS011;32921;53.256;8.198;2024-02-26T04:48:55;330.48;;;309.50;;
47161;SDS011;32921;53.256;8.198;2024-02-26T04:51:21;349.00;;;326.58;;
47161;SDS011;32921;53.256;8.198;2024-02-26T04:53:46;313.92;;;294.40;;
47161;SDS011;32921;53.256;8.198;2024-02-26T04:56:12;335.65;;;314.13;;
47161;SDS011;32921;53.256;8.198;2024-02-26T04:58:38;340.70;;;318.98;;
47161;SDS011;32921;53.256;8.198;2024-02-26T05:01:04;343.08;;;321.45;;
47161;SDS011;32921;53.256;8.198;2024-02-26T05:03:30;390.17;;;364.58;;
47161;SDS011;32921;53.256;8.198;2024-02-26T05:05:56;338.20;;;316.90;;
47161;SDS011;32921;53.256;8.198;2024-02-26T05:08:23;342.77;;;321.27;;
47161;SDS011;32921;53.256;8.198;2024-02-26T05:10:48;333.98;;;312.98;;
47161;SDS011;32921;53.256;8.198;2024-02-26T05:13:14;331.83;;;310.98;;
47161;SDS011;32921;53.256;8.198;2024-02-26T05:15:42;329.52;;;309.17;;
47161;SDS011;32921;53.256;8.198;2024-02-26T05:18:08;315.35;;;295.92;;
47161;SDS011;32921;53.256;8.198;2024-02-26T05:20:34;325.98;;;305.75;;
47161;SDS011;32921;53.256;8.198;2024-02-26T05:23:01;341.88;;;320.00;;
47161;SDS011;32921;53.256;8.198;2024-02-26T05:25:26;338.55;;;317.13;;
47161;SDS011;32921;53.256;8.198;2024-02-26T05:27:52;343.75;;;321.95;;
47161;SDS011;32921;53.256;8.198;2024-02-26T05:30:18;345.92;;;323.95;;
47161;SDS011;32921;53.256;8.198;2024-02-26T05:32:43;340.98;;;319.65;;
47161;SDS011;32921;53.256;8.198;2024-02-26T05:35:09;340.42;;;318.95;;
47161;SDS011;32921;53.256;8.198;2024-02-26T05:37:34;306.23;;;287.58;;
47161;SDS011;32921;53.256;8.198;2024-02-26T05:40:00;330.90;;;310.48;;
47161;SDS011;32921;53.256;8.198;2024-02-26T05:42:29;321.40;;;301.35;;
47161;SDS011;32921;53.256;8.198;2024-02-26T05:44:55;326.92;;;306.58;;
47161;SDS011;32921;53.256;8.198;2024-02-26T05:47:20;310.90;;;291.80;;
47161;SDS011;32921;53.256;8.198;2024-02-26T05:49:46;341.52;;;319.98;;
47161;SDS011;32921;53.256;8.198;2024-02-26T05:52:12;315.98;;;296.17;;
47161;SDS011;32921;53.256;8.198;2024-02-26T05:54:37;297.33;;;279.08;;
47161;SDS011;32921;53.256;8.198;2024-02-26T05:57:03;310.02;;;290.98;;
47161;SDS011;32921;53.256;8.198;2024-02-26T05:59:31;317.08;;;297.55;;
47161;SDS011;32921;53.256;8.198;2024-02-26T06:01:56;309.63;;;290.70;;
47161;SDS011;32921;53.256;8.198;2024-02-26T06:04:22;313.17;;;294.20;;
47161;SDS011;32921;53.256;8.198;2024-02-26T06:06:48;297.40;;;279.48;;
47161;SDS011;32921;53.256;8.198;2024-02-26T06:09:14;325.02;;;304.63;;
47161;SDS011;32921;53.256;8.198;2024-02-26T06:11:40;314.20;;;295.23;;
47161;SDS011;32921;53.256;8.198;2024-02-26T06:14:05;300.33;;;282.00;;
47161;SDS011;32921;53.256;8.198;2024-02-26T06:16:31;313.42;;;294.13;;
47161;SDS011;32921;53.256;8.198;2024-02-26T06:18:56;321.17;;;301.27;;
47161;SDS011;32921;53.256;8.198;2024-02-26T06:21:23;299.42;;;280.77;;
47161;SDS011;32921;53.256;8.198;2024-02-26T06:23:48;299.52;;;281.40;;
47161;SDS011;32921;53.256;8.198;2024-02-26T06:26:15;316.77;;;297.33;;
47161;SDS011;32921;53.256;8.198;2024-02-26T06:28:41;292.85;;;274.98;;
47161;SDS011;32921;53.256;8.198;2024-02-26T06:31:06;292.20;;;274.30;;
47161;SDS011;32921;53.256;8.198;2024-02-26T06:33:32;302.33;;;284.05;;
47161;SDS011;32921;53.256;8.198;2024-02-26T06:35:58;293.77;;;275.85;;
47161;SDS011;32921;53.256;8.198;2024-02-26T06:38:24;316.25;;;296.85;;
47161;SDS011;32921;53.256;8.198;2024-02-26T06:40:49;316.83;;;297.45;;
47161;SDS011;32921;53.256;8.198;2024-02-26T06:43:15;293.35;;;275.30;;
47161;SDS011;32921;53.256;8.198;2024-02-26T06:45:40;329.58;;;309.17;;
47161;SDS011;32921;53.256;8.198;2024-02-26T06:48:06;323.98;;;304.13;;
47161;SDS011;32921;53.256;8.198;2024-02-26T06:50:32;289.17;;;271.73;;
47161;SDS011;32921;53.256;8.198;2024-02-26T06:52:57;308.08;;;289.23;;
47161;SDS011;32921;53.256;8.198;2024-02-26T06:55:23;326.50;;;306.42;;
47161;SDS011;32921;53.256;8.198;2024-02-26T06:57:49;293.83;;;275.77;;
47161;SDS011;32921;53.256;8.198;2024-02-26T07:00:14;329.77;;;309.05;;
47161;SDS011;32921;53.256;8.198;2024-02-26T07:02:41;315.02;;;295.58;;
47161;SDS011;32921;53.256;8.198;2024-02-26T07:05:08;309.65;;;290.60;;
47161;SDS011;32921;53.256;8.198;2024-02-26T07:07:34;313.23;;;293.85;;
47161;SDS011;32921;53.256;8.198;2024-02-26T07:09:59;303.30;;;284.85;;
47161;SDS011;32921;53.256;8.198;2024-02-26T07:12:28;306.88;;;288.00;;
47161;SDS011;32921;53.256;8.198;2024-02-26T07:14:57;340.38;;;318.80;;
47161;SDS011;32921;53.256;8.198;2024-02-26T07:17:23;314.75;;;295.40;;
47161;SDS011;32921;53.256;8.198;2024-02-26T07:19:49;334.17;;;313.70;;
47161;SDS011;32921;53.256;8.198;2024-02-26T07:22:14;340.33;;;319.13;;
47161;SDS011;32921;53.256;8.198;2024-02-26T07:24:40;338.88;;;317.65;;
47161;SDS011;32921;53.256;8.198;2024-02-26T07:27:06;337.23;;;316.23;;
47161;SDS011;32921;53.256;8.198;2024-02-26T07:29:31;363.90;;;341.05;;
47161;SDS011;32921;53.256;8.198;2024-02-26T07:31:58;351.55;;;329.80;;
47161;SDS011;32921;53.256;8.198;2024-02-26T07:34:23;361.30;;;338.02;;
47161;SDS011;32921;53.256;8.198;2024-02-26T07:36:53;355.98;;;333.58;;
47161;SDS011;32921;53.256;8.198;2024-02-26T07:39:22;387.25;;;362.30;;
47161;SDS011;32921;53.256;8.198;2024-02-26T07:41:48;372.27;;;348.65;;
47161;SDS011;32921;53.256;8.198;2024-02-26T07:44:16;353.17;;;331.15;;
47161;SDS011;32921;53.256;8.198;2024-02-26T07:46:42;357.58;;;334.95;;
47161;SDS011;32921;53.256;8.198;2024-02-26T07:49:08;367.98;;;344.83;;
47161;SDS011;32921;53.256;8.198;2024-02-26T07:51:33;390.35;;;365.55;;
47161;SDS011;32921;53.256;8.198;2024-02-26T07:53:59;382.17;;;357.85;;
47161;SDS011;32921;53.256;8.198;2024-02-26T07:56:25;419.70;;;392.70;;
47161;SDS011;32921;53.256;8.198;2024-02-26T07:58:51;426.10;;;398.02;;
47161;SDS011;32921;53.256;8.198;2024-02-26T08:01:17;457.42;;;428.20;;
47161;SDS011;32921;53.256;8.198;2024-02-26T08:03:42;430.02;;;402.15;;
47161;SDS011;32921;53.256;8.198;2024-02-26T08:06:08;449.65;;;420.85;;
47161;SDS011;32921;53.256;8.198;2024-02-26T08:08:34;427.40;;;400.33;;
47161;SDS011;32921;53.256;8.198;2024-02-26T08:11:00;433.90;;;406.52;;
47161;SDS011;32921;53.256;8.198;2024-02-26T08:13:25;431.40;;;404.15;;
47161;SDS011;32921;53.256;8.198;2024-02-26T08:15:51;457.42;;;428.00;;
47161;SDS011;32921;53.256;8.198;2024-02-26T08:18:17;469.52;;;439.08;;
47161;SDS011;32921;53.256;8.198;2024-02-26T08:20:42;507.85;;;474.00;;
47161;SDS011;32921;53.256;8.198;2024-02-26T08:23:08;490.25;;;458.23;;
47161;SDS011;32921;53.256;8.198;2024-02-26T08:25:34;516.85;;;482.15;;
47161;SDS011;32921;53.256;8.198;2024-02-26T08:27:59;604.38;;;562.17;;
47161;SDS011;32921;53.256;8.198;2024-02-26T08:30:25;618.95;;;575.50;;
47161;SDS011;32921;53.256;8.198;2024-02-26T08:32:51;655.92;;;609.28;;
47161;SDS011;32921;53.256;8.198;2024-02-26T08:35:17;627.95;;;582.58;;
47161;SDS011;32921;53.256;8.198;2024-02-26T08:37:44;690.58;;;640.97;;
47161;SDS011;32921;53.256;8.198;2024-02-26T08:40:10;760.72;;;704.50;;
47161;SDS011;32921;53.256;8.198;2024-02-26T08:42:36;703.70;;;652.42;;
47161;SDS011;32921;53.256;8.198;2024-02-26T08:45:02;697.00;;;645.88;;
47161;SDS011;32921;53.256;8.198;2024-02-26T08:47:28;717.65;;;664.10;;
47161;SDS011;32921;53.256;8.198;2024-02-26T08:49:53;726.47;;;672.38;;
47161;SDS011;32921;53.256;8.198;2024-02-26T08:52:19;768.97;;;710.78;;
47161;SDS011;32921;53.256;8.198;2024-02-26T08:54:46;817.75;;;755.85;;
47161;SDS011;32921;53.256;8.198;2024-02-26T08:57:12;748.25;;;692.17;;
47161;SDS011;32921;53.256;8.198;2024-02-26T08:59:38;847.50;;;783.40;;
47161;SDS011;32921;53.256;8.198;2024-02-26T09:02:03;806.47;;;745.60;;
47161;SDS011;32921;53.256;8.198;2024-02-26T09:04:29;827.55;;;764.25;;
47161;SDS011;32921;53.256;8.198;2024-02-26T09:06:55;799.53;;;739.63;;
47161;SDS011;32921;53.256;8.198;2024-02-26T09:09:20;806.10;;;746.10;;
47161;SDS011;32921;53.256;8.198;2024-02-26T09:11:47;789.85;;;732.00;;
47161;SDS011;32921;53.256;8.198;2024-02-26T09:14:16;760.85;;;705.17;;
47161;SDS011;32921;53.256;8.198;2024-02-26T09:16:42;743.80;;;689.63;;
47161;SDS011;32921;53.256;8.198;2024-02-26T09:19:07;680.25;;;630.92;;
47161;SDS011;32921;53.256;8.198;2024-02-26T09:21:33;688.47;;;639.30;;
47161;SDS011;32921;53.256;8.198;2024-02-26T09:23:58;620.35;;;576.97;;
47161;SDS011;32921;53.256;8.198;2024-02-26T09:26:24;581.80;;;541.25;;
47161;SDS011;32921;53.256;8.198;2024-02-26T09:28:50;546.88;;;508.70;;
47161;SDS011;32921;53.256;8.198;2024-02-26T09:31:17;526.47;;;490.88;;
47161;SDS011;32921;53.256;8.198;2024-02-26T09:33:43;442.30;;;413.02;;
47161;SDS011;32921;53.256;8.198;2024-02-26T09:36:09;423.10;;;395.33;;
47161;SDS011;32921;53.256;8.198;2024-02-26T09:38:36;398.63;;;372.40;;
47161;SDS011;32921;53.256;8.198;2024-02-26T09:41:03;358.90;;;335.85;;
47161;SDS011;32921;53.256;8.198;2024-02-26T09:43:34;372.42;;;347.88;;
47161;SDS011;32921;53.256;8.198;2024-02-26T09:46:04;366.70;;;343.92;;
47161;SDS011;32921;53.256;8.198;2024-02-26T09:48:31;424.50;;;396.05;;
47161;SDS011;32921;53.256;8.198;2024-02-26T09:50:59;421.25;;;392.83;;
47161;SDS011;32921;53.256;8.198;2024-02-26T09:53:27;473.90;;;440.60;;
47161;SDS011;32921;53.256;8.198;2024-02-26T09:55:56;523.63;;;485.55;;
47161;SDS011;32921;53.256;8.198;2024-02-26T09:58:22;506.77;;;470.60;;
47161;SDS011;32921;53.256;8.198;2024-02-26T10:00:51;515.10;;;478.45;;
47161;SDS011;32921;53.256;8.198;2024-02-26T10:03:21;537.30;;;498.27;;
47161;SDS011;32921;53.256;8.198;2024-02-26T10:08:20;526.33;;;488.45;;
47161;SDS011;32921;53.256;8.198;2024-02-26T10:10:47;499.42;;;463.48;;
47161;SDS011;32921;53.256;8.198;2024-02-26T10:13:14;542.22;;;500.95;;
47161;SDS011;32921;53.256;8.198;2024-02-26T10:15:40;515.15;;;478.42;;
47161;SDS011;32921;53.256;8.198;2024-02-26T10:18:06;505.08;;;468.85;;
47161;SDS011;32921;53.256;8.198;2024-02-26T10:20:31;512.70;;;476.60;;
47161;SDS011;32921;53.256;8.198;2024-02-26T10:22:58;515.80;;;478.52;;
47161;SDS011;32921;53.256;8.198;2024-02-26T10:25:27;498.92;;;462.95;;
47161;SDS011;32921;53.256;8.198;2024-02-26T10:27:53;513.40;;;474.95;;
47161;SDS011;32921;53.256;8.198;2024-02-26T10:30:19;477.88;;;442.83;;
47161;SDS011;32921;53.256;8.198;2024-02-26T10:32:46;460.85;;;428.65;;
47161;SDS011;32921;53.256;8.198;2024-02-26T10:35:14;439.08;;;409.23;;
47161;SDS011;32921;53.256;8.198;2024-02-26T10:37:40;441.92;;;411.92;;
47161;SDS011;32921;53.256;8.198;2024-02-26T10:40:16;437.83;;;407.92;;
47161;SDS011;32921;53.256;8.198;2024-02-26T10:42:42;436.65;;;407.23;;
47161;SDS011;32921;53.256;8.198;2024-02-26T10:45:10;464.90;;;432.83;;
47161;SDS011;32921;53.256;8.198;2024-02-26T10:47:36;463.00;;;432.77;;
47161;SDS011;32921;53.256;8.198;2024-02-26T10:50:02;452.80;;;423.45;;
47161;SDS011;32921;53.256;8.198;2024-02-26T10:52:32;453.55;;;424.55;;
47161;SDS011;32921;53.256;8.198;2024-02-26T10:55:01;478.98;;;447.92;;
47161;SDS011;32921;53.256;8.198;2024-02-26T10:57:40;465.30;;;435.35;;
47161;SDS011;32921;53.256;8.198;2024-02-26T11:00:08;481.55;;;450.27;;
47161;SDS011;32921;53.256;8.198;2024-02-26T11:02:38;489.85;;;458.15;;
47161;SDS011;32921;53.256;8.198;2024-02-26T11:05:06;456.50;;;426.67;;
47161;SDS011;32921;53.256;8.198;2024-02-26T11:07:36;448.05;;;418.30;;
47161;SDS011;32921;53.256;8.198;2024-02-26T11:10:03;466.00;;;435.58;;
47161;SDS011;32921;53.256;8.198;2024-02-26T11:12:29;447.33;;;418.40;;
47161;SDS011;32921;53.256;8.198;2024-02-26T11:14:57;437.45;;;409.25;;
47161;SDS011;32921;53.256;8.198;2024-02-26T11:17:24;437.42;;;409.20;;
47161;SDS011;32921;53.256;8.198;2024-02-26T11:19:55;410.23;;;384.02;;
47161;SDS011;32921;53.256;8.198;2024-02-26T11:22:22;419.73;;;392.88;;
47161;SDS011;32921;53.256;8.198;2024-02-26T11:24:52;424.95;;;397.85;;
47161;SDS011;32921;53.256;8.198;2024-02-26T11:27:19;419.40;;;392.48;;
47161;SDS011;32921;53.256;8.198;2024-02-26T11:29:55;413.63;;;387.20;;
47161;SDS011;32921;53.256;8.198;2024-02-26T11:32:24;408.52;;;382.70;;
47161;SDS011;32921;53.256;8.198;2024-02-26T11:34:51;413.60;;;387.38;;
47161;SDS011;32921;53.256;8.198;2024-02-26T11:37:18;397.67;;;372.45;;
47161;SDS011;32921;53.256;8.198;2024-02-26T11:39:45;367.98;;;345.38;;
47161;SDS011;32921;53.256;8.198;2024-02-26T11:42:13;348.30;;;327.05;;
47161;SDS011;32921;53.256;8.198;2024-02-26T11:44:40;358.77;;;336.75;;
47161;SDS011;32921;53.256;8.198;2024-02-26T11:47:10;345.20;;;324.45;;
47161;SDS011;32921;53.256;8.198;2024-02-26T11:49:37;369.02;;;346.48;;
47161;SDS011;32921;53.256;8.198;2024-02-26T11:52:05;340.25;;;319.70;;
47161;SDS011;32921;53.256;8.198;2024-02-26T11:54:51;338.15;;;317.80;;
47161;SDS011;32921;53.256;8.198;2024-02-26T11:57:22;332.95;;;313.00;;
47161;SDS011;32921;53.256;8.198;2024-02-26T12:02:49;314.13;;;295.45;;
47161;SDS011;32921;53.256;8.198;2024-02-26T12:05:27;308.58;;;290.27;;
47161;SDS011;32921;53.256;8.198;2024-02-26T12:10:32;308.80;;;290.58;;
47161;SDS011;32921;53.256;8.198;2024-02-26T12:13:16;309.83;;;291.77;;
47161;SDS011;32921;53.256;8.198;2024-02-26T12:15:42;313.27;;;294.58;;
47161;SDS011;32921;53.256;8.198;2024-02-26T12:18:10;303.23;;;285.30;;
47161;SDS011;32921;53.256;8.198;2024-02-26T12:20:41;299.63;;;281.98;;
47161;SDS011;32921;53.256;8.198;2024-02-26T12:23:09;296.33;;;278.92;;
47161;SDS011;32921;53.256;8.198;2024-02-26T12:25:40;291.15;;;274.20;;
47161;SDS011;32921;53.256;8.198;2024-02-26T12:28:06;310.92;;;292.27;;
47161;SDS011;32921;53.256;8.198;2024-02-26T12:30:32;294.25;;;276.85;;
47161;SDS011;32921;53.256;8.198;2024-02-26T12:32:58;328.23;;;308.70;;
47161;SDS011;32921;53.256;8.198;2024-02-26T12:35:25;309.88;;;291.70;;
47161;SDS011;32921;53.256;8.198;2024-02-26T12:37:56;309.02;;;290.80;;
47161;SDS011;32921;53.256;8.198;2024-02-26T12:40:22;307.63;;;289.38;;
47161;SDS011;32921;53.256;8.198;2024-02-26T12:42:47;318.70;;;299.88;;
47161;SDS011;32921;53.256;8.198;2024-02-26T12:45:14;307.15;;;288.90;;
47161;SDS011;32921;53.256;8.198;2024-02-26T12:47:44;330.33;;;310.10;;
47161;SDS011;32921;53.256;8.198;2024-02-26T12:50:11;321.70;;;302.40;;
47161;SDS011;32921;53.256;8.198;2024-02-26T12:52:41;333.95;;;313.38;;
47161;SDS011;32921;53.256;8.198;2024-02-26T12:57:36;317.88;;;298.98;;
47161;SDS011;32921;53.256;8.198;2024-02-26T13:00:06;338.42;;;315.52;;
47161;SDS011;32921;53.256;8.198;2024-02-26T13:02:34;315.67;;;296.85;;
47161;SDS011;32921;53.256;8.198;2024-02-26T13:05:03;308.88;;;290.05;;
47161;SDS011;32921;53.256;8.198;2024-02-26T13:07:30;320.73;;;300.77;;
47161;SDS011;32921;53.256;8.198;2024-02-26T13:09:56;306.75;;;288.30;;
47161;SDS011;32921;53.256;8.198;2024-02-26T13:12:22;319.58;;;300.25;;
47161;SDS011;32921;53.256;8.198;2024-02-26T13:14:57;306.92;;;288.27;;
47161;SDS011;32921;53.256;8.198;2024-02-26T13:17:31;316.63;;;297.48;;
47161;SDS011;32921;53.256;8.198;2024-02-26T13:19:56;291.30;;;273.85;;
47161;SDS011;32921;53.256;8.198;2024-02-26T13:22:22;282.83;;;266.08;;
47161;SDS011;32921;53.256;8.198;2024-02-26T13:24:58;279.40;;;262.70;;
47161;SDS011;32921;53.256;8.198;2024-02-26T13:27:24;284.42;;;267.52;;
47161;SDS011;32921;53.256;8.198;2024-02-26T13:30:12;252.18;;;237.52;;
47161;SDS011;32921;53.256;8.198;2024-02-26T13:32:38;265.85;;;250.00;;
47161;SDS011;32921;53.256;8.198;2024-02-26T13:35:09;250.95;;;236.10;;
47161;SDS011;32921;53.256;8.198;2024-02-26T13:37:36;251.40;;;236.70;;
47161;SDS011;32921;53.256;8.198;2024-02-26T13:40:06;245.85;;;231.27;;
47161;SDS011;32921;53.256;8.198;2024-02-26T13:42:34;241.47;;;227.27;;
47161;SDS011;32921;53.256;8.198;2024-02-26T13:45:00;239.32;;;225.45;;
47161;SDS011;32921;53.256;8.198;2024-02-26T13:47:27;264.88;;;249.43;;
47161;SDS011;32921;53.256;8.198;2024-02-26T13:49:52;244.65;;;230.38;;
47161;SDS011;32921;53.256;8.198;2024-02-26T13:52:18;255.63;;;240.70;;
47161;SDS011;32921;53.256;8.198;2024-02-26T13:54:45;281.80;;;264.33;;
47161;SDS011;32921;53.256;8.198;2024-02-26T13:57:11;263.33;;;247.43;;
47161;SDS011;32921;53.256;8.198;2024-02-26T13:59:36;285.95;;;269.02;;
47161;SDS011;32921;53.256;8.198;2024-02-26T14:02:02;347.40;;;322.67;;
47161;SDS011;32921;53.256;8.198;2024-02-26T14:04:29;284.40;;;267.30;;